logo
Search for airport 
image banner adimage banner adimage banner ad
image banner ad

MMTEZ - Pista Tezontle (Antes Santiago)

Located in Libres, Mexico

ICAO - , IATA -

Data provided by Airmate  

General information

Coordinates: N19°29'23" W97°34'6"
Elevation is 7716 feet MSL.
Magnetic variation is 3° East
View others Airports in Puebla

Operational data

Special qualification required
Current time UTC:
Current local time:
Weather at : - ( 0 km )
METAR: KROG 231958Z VRB05KT 10SM FEW036 SCT100 28/20 A3009 RMK AO2 SLP174 T02830200
View NOTAMs / SUP AIP / TFR affecting this airport [VIEW]
Communications frequencies: [VIEW]

Runways:

RWY identifierQFULength (ft)Width (ft)SurfaceLDA (ft)
35357°548589DIRT
17177°548589DIRT

Airport contact information

Address: Libres Mexico

Satellite view of MMTEZ